createdAt,value
2019-03-26T00:01:09.147Z,2.90
2019-03-26T00:03:37.603Z,3.00
2019-03-26T00:06:06.130Z,3.30
2019-03-26T00:08:34.712Z,3.07
2019-03-26T00:11:03.198Z,3.20
2019-03-26T00:13:31.652Z,2.93
2019-03-26T00:16:00.193Z,2.90
2019-03-26T00:18:28.858Z,3.07
2019-03-26T00:20:57.391Z,2.67
2019-03-26T00:23:25.927Z,3.10
2019-03-26T00:25:54.483Z,3.00
2019-03-26T00:28:23.006Z,3.10
2019-03-26T00:30:51.466Z,3.30
2019-03-26T00:33:19.946Z,2.83
2019-03-26T00:35:48.498Z,2.80
2019-03-26T00:38:17.027Z,2.80
2019-03-26T00:40:45.539Z,2.93
2019-03-26T00:43:14.031Z,3.07
2019-03-26T00:45:42.638Z,2.90
2019-03-26T00:48:11.102Z,4.60
2019-03-26T00:50:39.670Z,3.50
2019-03-26T00:53:08.130Z,2.80
2019-03-26T00:55:36.599Z,2.87
2019-03-26T00:58:05.150Z,2.77
2019-03-26T01:00:41.850Z,2.87
2019-03-26T01:03:10.847Z,2.70
2019-03-26T01:05:39.467Z,2.90
2019-03-26T01:08:08.091Z,2.80
2019-03-26T01:10:36.639Z,2.80
2019-03-26T01:13:06.569Z,3.03
2019-03-26T01:15:35.267Z,2.97
2019-03-26T01:18:04.062Z,2.70
2019-03-26T01:20:32.547Z,2.50
2019-03-26T01:23:01.011Z,2.80
2019-03-26T01:25:29.495Z,3.00
2019-03-26T01:27:58.022Z,2.80
2019-03-26T01:30:26.483Z,2.80
2019-03-26T01:32:54.962Z,2.57
2019-03-26T01:35:23.454Z,2.90
2019-03-26T01:37:51.918Z,2.70
2019-03-26T01:40:20.375Z,2.90
2019-03-26T01:42:48.875Z,2.93
2019-03-26T01:45:17.403Z,3.13
2019-03-26T01:47:45.859Z,3.13
2019-03-26T01:50:14.579Z,2.80
2019-03-26T01:52:43.139Z,2.87
2019-03-26T01:55:11.736Z,2.83
2019-03-26T01:57:40.223Z,3.10
2019-03-26T02:00:08.895Z,3.23
2019-03-26T02:02:37.450Z,3.17
2019-03-26T02:05:06.947Z,3.17
2019-03-26T02:07:35.506Z,3.20
2019-03-26T02:10:04.403Z,3.40
2019-03-26T02:12:32.895Z,3.00
2019-03-26T02:15:01.350Z,3.10
2019-03-26T02:17:29.913Z,3.67
2019-03-26T02:19:58.714Z,3.10
2019-03-26T02:22:27.170Z,3.37
2019-03-26T02:24:55.671Z,3.20
2019-03-26T02:27:24.204Z,3.23
2019-03-26T02:29:52.691Z,3.10
2019-03-26T02:32:21.146Z,3.20
2019-03-26T02:34:49.633Z,3.00
2019-03-26T02:37:18.167Z,3.33
2019-03-26T02:39:46.652Z,3.20
2019-03-26T02:42:15.111Z,3.23
2019-03-26T02:44:43.608Z,3.10
2019-03-26T02:47:12.140Z,3.27
2019-03-26T02:49:40.600Z,3.13
2019-03-26T02:52:09.090Z,3.27
2019-03-26T02:54:37.651Z,3.20
2019-03-26T02:57:06.211Z,2.90
2019-03-26T02:59:34.673Z,3.17
2019-03-26T03:02:03.305Z,3.10
2019-03-26T03:04:31.860Z,3.40
2019-03-26T03:07:00.435Z,3.27
2019-03-26T03:09:28.895Z,3.10
2019-03-26T03:11:57.527Z,3.13
2019-03-26T03:14:26.202Z,2.93
2019-03-26T03:16:54.718Z,3.07
2019-03-26T03:19:23.312Z,3.30
2019-03-26T03:21:51.842Z,3.13
2019-03-26T03:24:20.303Z,3.40
2019-03-26T03:26:48.800Z,3.03
2019-03-26T03:29:17.260Z,3.17
2019-03-26T03:31:45.795Z,4.37
2019-03-26T03:34:14.283Z,3.10
2019-03-26T03:36:42.839Z,3.30
2019-03-26T03:39:11.439Z,2.87
2019-03-26T03:41:39.990Z,3.10
2019-03-26T03:44:08.591Z,3.50
2019-03-26T03:46:38.208Z,3.10
2019-03-26T03:49:06.883Z,3.17
2019-03-26T03:51:36.482Z,3.37
2019-03-26T03:54:05.203Z,3.20
2019-03-26T03:56:37.404Z,2.83
2019-03-26T03:59:07.628Z,3.10
2019-03-26T04:01:36.088Z,3.30
2019-03-26T04:04:04.581Z,3.10
2019-03-26T04:06:33.119Z,3.07
2019-03-26T04:09:01.689Z,3.17
2019-03-26T04:11:30.224Z,3.40
2019-03-26T04:13:58.748Z,2.80
2019-03-26T04:16:27.311Z,3.93
2019-03-26T04:18:55.851Z,3.47
2019-03-26T04:21:24.384Z,3.53
2019-03-26T04:23:52.953Z,3.47
2019-03-26T04:26:21.411Z,3.47
2019-03-26T04:28:49.875Z,3.60
2019-03-26T04:31:18.439Z,3.47
2019-03-26T04:33:46.970Z,3.37
2019-03-26T04:36:25.250Z,3.30
2019-03-26T04:38:45.720Z,3.50
2019-03-26T04:41:14.256Z,3.50
2019-03-26T04:43:42.811Z,4.17
2019-03-26T04:46:11.382Z,3.40
2019-03-26T04:48:39.842Z,3.23
2019-03-26T04:51:08.303Z,3.83
2019-03-26T04:53:36.796Z,3.70
2019-03-26T04:56:05.339Z,3.97
2019-03-26T04:58:33.874Z,3.70
2019-03-26T05:01:02.359Z,3.27
2019-03-26T05:03:30.818Z,3.90
2019-03-26T05:05:59.319Z,3.87
2019-03-26T05:08:27.954Z,3.80
2019-03-26T05:10:56.411Z,3.63
2019-03-26T05:13:25.094Z,3.57
2019-03-26T05:15:53.640Z,3.70
2019-03-26T05:18:22.204Z,3.13
2019-03-26T05:20:50.690Z,3.90
2019-03-26T05:23:19.255Z,3.60
2019-03-26T05:25:47.790Z,3.80
2019-03-26T05:28:16.372Z,3.63
2019-03-26T05:30:44.911Z,3.77
2019-03-26T05:33:13.398Z,3.87
2019-03-26T05:35:42.014Z,3.90
2019-03-26T05:38:10.573Z,3.73
2019-03-26T05:40:39.104Z,4.10
2019-03-26T05:43:07.678Z,4.00
2019-03-26T05:45:36.242Z,4.50
2019-03-26T05:48:04.780Z,4.40
2019-03-26T05:50:33.272Z,4.40
2019-03-26T05:53:01.730Z,4.43
2019-03-26T05:55:30.204Z,4.07
2019-03-26T05:57:58.680Z,3.30
2019-03-26T06:00:27.706Z,3.30
2019-03-26T06:02:56.166Z,3.30
2019-03-26T06:05:24.654Z,4.00
2019-03-26T06:07:53.119Z,4.27
2019-03-26T06:10:21.670Z,4.23
2019-03-26T06:12:50.451Z,4.10
2019-03-26T06:15:19.074Z,3.53
2019-03-26T06:17:47.547Z,3.93
2019-03-26T06:20:17.144Z,4.15
2019-03-26T06:22:45.626Z,4.30
2019-03-26T06:25:14.156Z,3.53
2019-03-26T06:27:42.756Z,4.30
2019-03-26T06:30:11.971Z,4.03
2019-03-26T06:32:40.503Z,4.30
2019-03-26T06:35:09.398Z,4.60
2019-03-26T06:37:39.498Z,5.00
2019-03-26T06:40:09.919Z,4.80
2019-03-26T06:42:38.472Z,4.83
2019-03-26T06:45:10.919Z,4.13
2019-03-26T06:47:39.435Z,5.10
2019-03-26T06:50:09.710Z,5.13
2019-03-26T06:52:38.320Z,6.10
2019-03-26T06:55:07.955Z,5.83
2019-03-26T06:57:36.936Z,6.77
2019-03-26T07:00:11.230Z,6.70
2019-03-26T07:02:40.035Z,6.23
2019-03-26T07:05:09.466Z,6.53
2019-03-26T07:07:37.938Z,6.37
2019-03-26T07:10:08.118Z,6.57
2019-03-26T07:12:37.052Z,5.83
2019-03-26T07:15:09.916Z,5.93
2019-03-26T07:17:38.547Z,5.80
2019-03-26T07:20:08.548Z,5.67
2019-03-26T07:22:37.047Z,5.57
2019-03-26T07:25:08.458Z,6.03
2019-03-26T07:27:37.541Z,5.50
2019-03-26T07:30:10.435Z,4.27
2019-03-26T07:32:38.992Z,5.30
2019-03-26T07:35:08.198Z,4.90
2019-03-26T07:37:45.282Z,4.73
2019-03-26T07:40:07.927Z,4.33
2019-03-26T07:42:36.386Z,4.13
2019-03-26T07:45:07.802Z,3.50
2019-03-26T07:47:36.511Z,3.50
2019-03-26T07:50:07.250Z,4.07
2019-03-26T07:52:35.787Z,2.90
2019-03-26T07:55:06.819Z,3.03
2019-03-26T07:57:35.306Z,3.10
2019-03-26T08:00:09.531Z,3.37
2019-03-26T08:02:38.023Z,3.70
2019-03-26T08:05:08.200Z,3.60
2019-03-26T08:07:37.151Z,3.80
2019-03-26T08:10:09.206Z,4.30
2019-03-26T08:12:37.884Z,4.23
2019-03-26T08:15:09.874Z,4.13
2019-03-26T08:17:38.400Z,3.93
2019-03-26T08:20:07.978Z,4.67
2019-03-26T08:22:36.508Z,3.93
2019-03-26T08:25:07.063Z,4.10
2019-03-26T08:27:35.698Z,3.90
2019-03-26T08:30:08.579Z,4.40
2019-03-26T08:32:37.404Z,4.60
2019-03-26T08:35:06.431Z,5.00
2019-03-26T08:37:34.919Z,6.00
2019-03-26T08:40:05.418Z,6.10
2019-03-26T08:42:33.906Z,8.37
2019-03-26T08:45:02.443Z,8.30
2019-03-26T08:47:31.103Z,8.80
2019-03-26T08:49:59.586Z,8.57
2019-03-26T08:52:28.171Z,8.97
2019-03-26T08:54:56.670Z,8.60
2019-03-26T08:57:25.211Z,9.13
2019-03-26T08:59:53.679Z,9.57
2019-03-26T09:02:22.242Z,10.50
2019-03-26T09:04:50.770Z,9.43
2019-03-26T09:07:19.252Z,10.30
2019-03-26T09:09:47.910Z,9.97
2019-03-26T09:12:16.546Z,9.97
2019-03-26T09:14:45.014Z,10.23
2019-03-26T09:17:13.522Z,9.67
2019-03-26T09:19:42.020Z,11.10
2019-03-26T09:22:10.558Z,10.93
2019-03-26T09:24:39.048Z,9.87
2019-03-26T09:27:07.515Z,10.30
2019-03-26T09:29:35.980Z,10.43
2019-03-26T09:32:04.538Z,10.93
2019-03-26T09:34:33.026Z,11.50
2019-03-26T09:37:01.600Z,9.80
2019-03-26T09:39:30.207Z,10.30
2019-03-26T09:41:58.858Z,10.80
2019-03-26T09:44:27.323Z,11.03
2019-03-26T09:46:55.890Z,10.90
2019-03-26T09:49:24.375Z,10.37
2019-03-26T09:51:52.839Z,9.60
2019-03-26T09:54:21.406Z,10.63
2019-03-26T09:56:49.942Z,9.17
2019-03-26T09:59:18.503Z,10.60
2019-03-26T10:01:47.072Z,10.20
2019-03-26T10:04:15.535Z,9.90
2019-03-26T10:06:44.142Z,8.93
2019-03-26T10:09:12.630Z,9.30
2019-03-26T10:11:41.094Z,9.17
2019-03-26T10:14:09.651Z,9.43
2019-03-26T10:16:38.136Z,8.60
2019-03-26T10:19:06.691Z,9.00
2019-03-26T10:21:35.228Z,8.87
2019-03-26T10:24:03.699Z,8.63
2019-03-26T10:26:32.262Z,9.37
2019-03-26T10:29:13.865Z,8.53
2019-03-26T10:31:31.018Z,9.30
2019-03-26T10:33:59.491Z,9.63
2019-03-26T10:36:28.191Z,8.77
2019-03-26T10:39:05.521Z,9.23
2019-03-26T10:41:26.975Z,8.80
2019-03-26T10:43:55.434Z,9.07
2019-03-26T10:46:23.926Z,9.47
2019-03-26T10:48:52.419Z,9.33
2019-03-26T10:51:20.912Z,9.80
2019-03-26T10:53:49.383Z,9.37
2019-03-26T10:56:17.951Z,9.47
2019-03-26T10:58:46.416Z,9.13
2019-03-26T11:01:14.886Z,9.27
2019-03-26T11:03:43.447Z,9.53
2019-03-26T11:06:12.039Z,8.90
2019-03-26T11:08:40.623Z,9.77
2019-03-26T11:11:09.088Z,9.23
2019-03-26T11:13:37.546Z,9.17
2019-03-26T11:16:06.135Z,8.57
2019-03-26T11:18:34.619Z,8.77
2019-03-26T11:21:03.462Z,8.97
2019-03-26T11:23:32.118Z,9.60
2019-03-26T11:26:00.670Z,8.57
2019-03-26T11:28:29.237Z,8.87
2019-03-26T11:30:57.698Z,8.27
2019-03-26T11:33:26.276Z,8.10
2019-03-26T11:35:54.816Z,7.60
2019-03-26T11:38:24.098Z,7.80
2019-03-26T11:40:52.587Z,7.30
2019-03-26T11:43:21.122Z,7.40
2019-03-26T11:45:49.813Z,6.70
2019-03-26T11:48:18.351Z,6.90
2019-03-26T11:50:46.915Z,6.40
2019-03-26T11:53:15.518Z,6.90
2019-03-26T11:55:44.020Z,7.10
2019-03-26T11:58:12.578Z,7.20
2019-03-26T12:00:41.071Z,6.43
2019-03-26T12:03:09.565Z,6.67
2019-03-26T12:05:38.126Z,6.07
2019-03-26T12:08:06.620Z,6.70
2019-03-26T12:10:35.162Z,6.43
2019-03-26T12:13:03.830Z,5.30
2019-03-26T12:15:32.369Z,5.70
2019-03-26T12:18:00.859Z,5.53
2019-03-26T12:20:29.324Z,5.60
2019-03-26T12:22:57.813Z,5.57
2019-03-26T12:25:26.302Z,6.30
2019-03-26T12:27:54.768Z,5.40
2019-03-26T12:30:34.091Z,5.23
2019-03-26T12:33:02.693Z,4.90
2019-03-26T12:35:31.399Z,5.07
2019-03-26T12:37:59.952Z,4.53
2019-03-26T12:40:28.442Z,5.03
2019-03-26T12:42:56.932Z,5.03
2019-03-26T12:45:25.572Z,4.80
2019-03-26T12:47:54.147Z,4.70
2019-03-26T12:50:22.635Z,4.90
2019-03-26T12:52:51.114Z,4.57
2019-03-26T12:55:19.587Z,5.47
2019-03-26T12:57:48.067Z,5.17
2019-03-26T13:00:16.866Z,5.00
2019-03-26T13:02:45.362Z,4.90
2019-03-26T13:05:14.130Z,5.20
2019-03-26T13:07:42.626Z,4.70
2019-03-26T13:10:13.854Z,4.50
2019-03-26T13:12:41.630Z,4.50
2019-03-26T13:15:10.174Z,4.20
2019-03-26T13:17:38.818Z,4.63
2019-03-26T13:20:07.558Z,4.47
2019-03-26T13:22:36.083Z,4.33
2019-03-26T13:25:06.607Z,4.30
2019-03-26T13:27:35.936Z,4.03
2019-03-26T13:30:06.459Z,3.73
2019-03-26T13:32:35.059Z,3.57
2019-03-26T13:35:05.890Z,3.67
2019-03-26T13:37:34.426Z,3.87
2019-03-26T13:40:03.207Z,3.10
2019-03-26T13:42:31.694Z,3.10
2019-03-26T13:45:00.355Z,3.10
2019-03-26T13:47:29.052Z,3.10
2019-03-26T13:49:57.511Z,3.67
2019-03-26T13:52:26.001Z,3.63
2019-03-26T13:54:54.539Z,2.77
2019-03-26T13:57:23.038Z,3.70
2019-03-26T13:59:51.515Z,3.37
2019-03-26T14:02:20.072Z,3.20
2019-03-26T14:04:48.530Z,3.43
2019-03-26T14:07:17.002Z,3.30
2019-03-26T14:09:45.561Z,3.83
2019-03-26T14:12:14.466Z,3.80
2019-03-26T14:14:42.954Z,3.87
2019-03-26T14:17:11.446Z,3.43
2019-03-26T14:19:39.906Z,3.80
2019-03-26T14:22:08.533Z,3.07
2019-03-26T14:24:37.112Z,3.57
2019-03-26T14:27:05.731Z,3.80
2019-03-26T14:29:34.300Z,3.73
2019-03-26T14:32:02.763Z,3.67
2019-03-26T14:34:31.323Z,4.13
2019-03-26T14:36:59.798Z,3.80
2019-03-26T14:39:28.270Z,4.10
2019-03-26T14:41:56.832Z,4.43
2019-03-26T14:44:25.390Z,3.93
2019-03-26T14:46:53.879Z,3.80
2019-03-26T14:49:22.352Z,4.20
2019-03-26T14:51:50.954Z,3.73
2019-03-26T14:54:19.445Z,4.07
2019-03-26T14:56:47.992Z,5.00
2019-03-26T14:59:16.522Z,4.07
2019-03-26T15:01:45.090Z,5.03
2019-03-26T15:04:13.570Z,5.57
2019-03-26T15:06:42.196Z,5.20
2019-03-26T15:09:10.823Z,5.17
2019-03-26T15:11:39.434Z,5.73
2019-03-26T15:14:07.930Z,5.37
2019-03-26T15:16:36.609Z,6.00
2019-03-26T15:19:05.140Z,6.40
2019-03-26T15:21:33.786Z,5.53
2019-03-26T15:24:02.263Z,6.33
2019-03-26T15:26:30.887Z,5.93
2019-03-26T15:28:59.422Z,6.53
2019-03-26T15:31:27.918Z,7.03
2019-03-26T15:33:56.450Z,7.33
2019-03-26T15:36:24.959Z,6.83
2019-03-26T15:38:53.450Z,7.60
2019-03-26T15:41:22.233Z,7.43
2019-03-26T15:43:50.829Z,7.00
2019-03-26T15:46:19.366Z,7.00
2019-03-26T15:48:47.904Z,7.00
2019-03-26T15:51:16.401Z,6.43
2019-03-26T15:53:44.976Z,6.70
2019-03-26T15:56:13.510Z,6.07
2019-03-26T15:58:42.003Z,5.87
2019-03-26T16:01:10.547Z,6.43
2019-03-26T16:03:39.005Z,5.90
2019-03-26T16:06:07.591Z,6.00
2019-03-26T16:08:36.289Z,5.13
2019-03-26T16:11:04.810Z,6.00
2019-03-26T16:13:35.778Z,5.43
2019-03-26T16:16:03.651Z,5.80
2019-03-26T16:18:32.270Z,5.63
2019-03-26T16:21:00.759Z,5.37
2019-03-26T16:23:29.534Z,5.27
2019-03-26T16:25:58.186Z,5.10
2019-03-26T16:28:26.721Z,5.97
2019-03-26T16:30:55.186Z,4.97
2019-03-26T16:33:23.674Z,4.90
2019-03-26T16:35:52.191Z,4.90
2019-03-26T16:38:20.751Z,5.17
2019-03-26T16:40:49.217Z,4.70
2019-03-26T16:43:17.877Z,4.67
2019-03-26T16:45:46.390Z,4.57
2019-03-26T16:48:14.900Z,4.30
2019-03-26T16:50:43.430Z,4.43
2019-03-26T16:53:11.922Z,4.63
2019-03-26T16:55:40.414Z,4.80
2019-03-26T16:58:08.962Z,4.70
2019-03-26T17:00:37.422Z,4.43
2019-03-26T17:03:06.027Z,4.10
2019-03-26T17:05:34.586Z,4.53
2019-03-26T17:08:03.362Z,4.33
2019-03-26T17:10:31.923Z,4.33
2019-03-26T17:13:00.464Z,4.40
2019-03-26T17:15:29.015Z,4.20
2019-03-26T17:17:57.478Z,4.47
2019-03-26T17:20:26.107Z,4.40
2019-03-26T17:22:54.655Z,4.67
2019-03-26T17:25:23.347Z,5.30
2019-03-26T17:27:51.831Z,4.40
2019-03-26T17:30:20.367Z,4.73
2019-03-26T17:32:48.927Z,4.57
2019-03-26T17:35:17.422Z,4.40
2019-03-26T17:37:58.611Z,4.73
2019-03-26T17:40:16.182Z,5.03
2019-03-26T17:42:44.672Z,4.70
2019-03-26T17:45:13.385Z,4.60
2019-03-26T17:47:41.935Z,4.53
2019-03-26T17:50:11.636Z,4.47
2019-03-26T17:52:40.193Z,4.50
2019-03-26T17:55:08.825Z,4.70
2019-03-26T17:57:37.282Z,4.90
2019-03-26T18:00:08.847Z,4.40
2019-03-26T18:02:37.302Z,4.23
2019-03-26T18:05:08.859Z,4.70
2019-03-26T18:07:37.395Z,5.40
2019-03-26T18:10:06.644Z,4.60
2019-03-26T18:12:35.102Z,4.60
2019-03-26T18:15:03.771Z,5.30
2019-03-26T18:17:32.235Z,4.97
2019-03-26T18:20:00.703Z,5.23
2019-03-26T18:22:29.206Z,5.10
2019-03-26T18:24:57.738Z,4.73
2019-03-26T18:27:26.226Z,4.93
2019-03-26T18:29:54.783Z,5.07
2019-03-26T18:32:23.251Z,5.50
2019-03-26T18:35:11.355Z,6.23
2019-03-26T18:37:39.939Z,6.07
2019-03-26T18:40:08.534Z,6.00
2019-03-26T18:42:43.874Z,5.60
2019-03-26T18:45:08.178Z,6.10
2019-03-26T18:47:36.658Z,6.00
2019-03-26T18:50:06.388Z,6.07
2019-03-26T18:52:34.922Z,6.73
2019-03-26T18:55:03.923Z,6.10
2019-03-26T18:57:32.498Z,6.80
2019-03-26T19:00:01.031Z,6.60
2019-03-26T19:02:29.563Z,6.67
2019-03-26T19:04:58.311Z,7.77
2019-03-26T19:07:26.847Z,7.77
2019-03-26T19:09:55.351Z,7.80
2019-03-26T19:12:23.814Z,9.70
2019-03-26T19:14:52.286Z,7.87
2019-03-26T19:17:20.828Z,8.33
2019-03-26T19:19:49.343Z,8.27
2019-03-26T19:22:17.807Z,8.40
2019-03-26T19:24:46.380Z,10.37
2019-03-26T19:27:14.943Z,9.03
2019-03-26T19:29:43.498Z,9.40
2019-03-26T19:32:11.989Z,8.77
2019-03-26T19:34:40.451Z,9.63
2019-03-26T19:37:08.954Z,13.57
2019-03-26T19:39:37.487Z,10.20
2019-03-26T19:42:06.983Z,9.83
2019-03-26T19:44:35.634Z,10.60
2019-03-26T19:47:04.179Z,10.33
2019-03-26T19:49:32.827Z,9.90
2019-03-26T19:52:01.396Z,10.83
2019-03-26T19:54:29.942Z,9.37
2019-03-26T19:56:58.477Z,9.30
2019-03-26T19:59:26.982Z,10.97
2019-03-26T20:01:55.511Z,9.80
2019-03-26T20:04:24.068Z,9.23
2019-03-26T20:06:52.674Z,9.03
2019-03-26T20:09:21.171Z,8.97
2019-03-26T20:11:49.631Z,9.50
2019-03-26T20:14:18.184Z,9.77
2019-03-26T20:16:46.643Z,9.57
2019-03-26T20:19:15.113Z,9.53
2019-03-26T20:21:43.672Z,10.30
2019-03-26T20:24:12.223Z,9.73
2019-03-26T20:26:40.798Z,9.10
2019-03-26T20:29:09.579Z,9.77
2019-03-26T20:31:38.114Z,9.93
2019-03-26T20:34:06.615Z,9.17
2019-03-26T20:36:35.140Z,9.80
2019-03-26T20:39:05.467Z,10.10
2019-03-26T20:41:34.075Z,9.53
2019-03-26T20:44:02.683Z,9.60
2019-03-26T20:46:31.239Z,9.07
2019-03-26T20:48:59.748Z,9.33
2019-03-26T20:51:28.287Z,9.50
2019-03-26T20:53:56.855Z,9.67
2019-03-26T20:56:25.791Z,9.53
2019-03-26T20:58:54.319Z,9.70
2019-03-26T21:01:22.814Z,10.03
2019-03-26T21:03:51.290Z,9.63
2019-03-26T21:06:19.815Z,9.67
2019-03-26T21:08:48.308Z,9.40
2019-03-26T21:11:16.772Z,9.83
2019-03-26T21:13:50.587Z,10.70
2019-03-26T21:16:15.472Z,9.27
2019-03-26T21:18:43.959Z,9.97
2019-03-26T21:21:12.558Z,9.43
2019-03-26T21:23:41.043Z,9.77
2019-03-26T21:26:09.507Z,10.50
2019-03-26T21:28:37.990Z,9.00
2019-03-26T21:31:06.454Z,10.10
2019-03-26T21:33:35.038Z,10.47
2019-03-26T21:36:03.970Z,10.10
2019-03-26T21:38:32.716Z,9.87
2019-03-26T21:41:01.243Z,9.80
2019-03-26T21:43:29.735Z,9.97
2019-03-26T21:45:58.594Z,9.63
2019-03-26T21:48:27.069Z,10.33
2019-03-26T21:50:55.554Z,10.07
2019-03-26T21:53:24.238Z,10.17
2019-03-26T21:56:05.437Z,10.50
2019-03-26T21:58:23.009Z,9.93
2019-03-26T22:00:51.554Z,9.07
2019-03-26T22:03:20.113Z,10.33
2019-03-26T22:05:48.762Z,10.10
2019-03-26T22:08:18.170Z,10.43
2019-03-26T22:10:46.760Z,10.23
2019-03-26T22:13:15.294Z,11.07
2019-03-26T22:15:43.859Z,10.67
2019-03-26T22:18:13.058Z,10.43
2019-03-26T22:20:41.555Z,10.50
2019-03-26T22:23:10.344Z,10.70
2019-03-26T22:25:39.070Z,11.00
2019-03-26T22:28:07.622Z,9.63
2019-03-26T22:30:36.251Z,10.60
2019-03-26T22:33:04.748Z,10.23
2019-03-26T22:35:33.290Z,10.40
2019-03-26T22:38:01.754Z,10.13
2019-03-26T22:40:30.234Z,9.87
2019-03-26T22:42:58.795Z,10.27
2019-03-26T22:45:27.346Z,9.43
2019-03-26T22:47:55.811Z,10.83
2019-03-26T22:50:24.406Z,9.80
2019-03-26T22:52:52.888Z,9.80
2019-03-26T22:55:21.515Z,10.43
2019-03-26T22:57:49.978Z,9.73
2019-03-26T23:00:19.934Z,10.20
2019-03-26T23:02:48.535Z,9.90
2019-03-26T23:05:18.242Z,10.43
2019-03-26T23:07:46.802Z,10.10
2019-03-26T23:10:17.279Z,10.00
2019-03-26T23:12:45.842Z,10.10
2019-03-26T23:15:19.982Z,10.60
2019-03-26T23:17:48.878Z,10.40
2019-03-26T23:20:17.651Z,10.97
2019-03-26T23:22:46.305Z,9.90
2019-03-26T23:25:15.114Z,10.27
2019-03-26T23:27:43.650Z,10.50
2019-03-26T23:30:12.207Z,10.53
2019-03-26T23:32:40.744Z,10.63
2019-03-26T23:35:09.728Z,10.93
2019-03-26T23:37:38.359Z,10.50
2019-03-26T23:40:07.087Z,10.30
2019-03-26T23:42:35.626Z,10.80
2019-03-26T23:45:06.887Z,10.77
2019-03-26T23:47:35.426Z,10.13
2019-03-26T23:50:06.150Z,10.43
2019-03-26T23:52:34.678Z,10.10
2019-03-26T23:55:03.240Z,10.47
2019-03-26T23:57:31.819Z,11.20
